sensor_id;sensor_type;location;lat;lon;timestamp;P1;durP1;ratioP1;P2;durP2;ratioP2
67737;SDS011;54534;43.612;1.572;2022-12-07T00:01:36;25.97;;;17.27;;
67737;SDS011;54534;43.612;1.572;2022-12-07T00:04:04;23.67;;;16.63;;
67737;SDS011;54534;43.612;1.572;2022-12-07T00:06:40;25.13;;;16.57;;
67737;SDS011;54534;43.612;1.572;2022-12-07T00:09:12;25.23;;;16.93;;
67737;SDS011;54534;43.612;1.572;2022-12-07T00:11:38;27.00;;;17.03;;
67737;SDS011;54534;43.612;1.572;2022-12-07T00:14:05;25.23;;;16.73;;
67737;SDS011;54534;43.612;1.572;2022-12-07T00:16:33;27.63;;;17.20;;
67737;SDS011;54534;43.612;1.572;2022-12-07T00:18:59;26.73;;;16.73;;
67737;SDS011;54534;43.612;1.572;2022-12-07T00:21:26;25.50;;;15.53;;
67737;SDS011;54534;43.612;1.572;2022-12-07T00:23:56;22.73;;;14.77;;
67737;SDS011;54534;43.612;1.572;2022-12-07T00:26:23;26.17;;;16.73;;
67737;SDS011;54534;43.612;1.572;2022-12-07T00:28:50;23.73;;;16.27;;
67737;SDS011;54534;43.612;1.572;2022-12-07T00:31:18;24.23;;;15.07;;
67737;SDS011;54534;43.612;1.572;2022-12-07T00:33:45;22.17;;;15.17;;
67737;SDS011;54534;43.612;1.572;2022-12-07T00:36:12;21.77;;;14.77;;
67737;SDS011;54534;43.612;1.572;2022-12-07T00:38:39;22.20;;;14.60;;
67737;SDS011;54534;43.612;1.572;2022-12-07T00:41:10;22.67;;;15.33;;
67737;SDS011;54534;43.612;1.572;2022-12-07T00:43:38;26.03;;;16.03;;
67737;SDS011;54534;43.612;1.572;2022-12-07T00:46:04;23.53;;;15.37;;
67737;SDS011;54534;43.612;1.572;2022-12-07T00:48:29;21.30;;;15.03;;
67737;SDS011;54534;43.612;1.572;2022-12-07T00:50:55;21.43;;;14.40;;
67737;SDS011;54534;43.612;1.572;2022-12-07T00:53:21;27.87;;;16.00;;
67737;SDS011;54534;43.612;1.572;2022-12-07T00:55:47;22.47;;;15.03;;
67737;SDS011;54534;43.612;1.572;2022-12-07T00:58:13;24.00;;;15.17;;
67737;SDS011;54534;43.612;1.572;2022-12-07T01:00:40;22.70;;;14.87;;
67737;SDS011;54534;43.612;1.572;2022-12-07T01:03:06;25.43;;;14.93;;
67737;SDS011;54534;43.612;1.572;2022-12-07T01:05:33;22.87;;;14.47;;
67737;SDS011;54534;43.612;1.572;2022-12-07T01:07:59;19.63;;;14.20;;
67737;SDS011;54534;43.612;1.572;2022-12-07T01:10:26;20.03;;;13.40;;
67737;SDS011;54534;43.612;1.572;2022-12-07T01:12:52;19.17;;;13.13;;
67737;SDS011;54534;43.612;1.572;2022-12-07T01:15:18;23.50;;;14.67;;
67737;SDS011;54534;43.612;1.572;2022-12-07T01:17:43;21.80;;;13.13;;
67737;SDS011;54534;43.612;1.572;2022-12-07T01:20:09;22.50;;;13.67;;
67737;SDS011;54534;43.612;1.572;2022-12-07T01:22:38;21.53;;;13.83;;
67737;SDS011;54534;43.612;1.572;2022-12-07T01:25:05;21.70;;;14.48;;
67737;SDS011;54534;43.612;1.572;2022-12-07T01:27:32;23.77;;;15.27;;
67737;SDS011;54534;43.612;1.572;2022-12-07T01:29:58;19.80;;;13.07;;
67737;SDS011;54534;43.612;1.572;2022-12-07T01:32:24;19.43;;;13.40;;
67737;SDS011;54534;43.612;1.572;2022-12-07T01:34:50;22.60;;;13.37;;
67737;SDS011;54534;43.612;1.572;2022-12-07T01:37:15;20.60;;;13.73;;
67737;SDS011;54534;43.612;1.572;2022-12-07T01:39:41;20.37;;;13.53;;
67737;SDS011;54534;43.612;1.572;2022-12-07T01:42:12;20.30;;;13.33;;
67737;SDS011;54534;43.612;1.572;2022-12-07T01:47:41;18.67;;;12.77;;
67737;SDS011;54534;43.612;1.572;2022-12-07T01:50:11;19.17;;;13.10;;
67737;SDS011;54534;43.612;1.572;2022-12-07T01:52:37;18.83;;;12.53;;
67737;SDS011;54534;43.612;1.572;2022-12-07T01:55:06;20.07;;;12.77;;
67737;SDS011;54534;43.612;1.572;2022-12-07T01:57:35;20.93;;;13.13;;
67737;SDS011;54534;43.612;1.572;2022-12-07T02:02:35;18.43;;;12.83;;
67737;SDS011;54534;43.612;1.572;2022-12-07T02:05:04;18.67;;;13.20;;
67737;SDS011;54534;43.612;1.572;2022-12-07T02:07:31;17.50;;;12.37;;
67737;SDS011;54534;43.612;1.572;2022-12-07T02:13:00;19.70;;;13.80;;
67737;SDS011;54534;43.612;1.572;2022-12-07T02:15:31;17.60;;;11.97;;
67737;SDS011;54534;43.612;1.572;2022-12-07T02:18:09;18.57;;;12.77;;
67737;SDS011;54534;43.612;1.572;2022-12-07T02:20:38;17.42;;;12.07;;
67737;SDS011;54534;43.612;1.572;2022-12-07T02:31:33;18.23;;;11.80;;
67737;SDS011;54534;43.612;1.572;2022-12-07T02:34:07;17.93;;;11.50;;
67737;SDS011;54534;43.612;1.572;2022-12-07T02:36:50;16.77;;;11.77;;
67737;SDS011;54534;43.612;1.572;2022-12-07T02:39:35;16.97;;;11.37;;
67737;SDS011;54534;43.612;1.572;2022-12-07T02:42:28;17.60;;;12.80;;
67737;SDS011;54534;43.612;1.572;2022-12-07T02:44:56;17.70;;;11.63;;
67737;SDS011;54534;43.612;1.572;2022-12-07T02:47:23;16.57;;;11.53;;
67737;SDS011;54534;43.612;1.572;2022-12-07T02:49:50;16.47;;;11.43;;
67737;SDS011;54534;43.612;1.572;2022-12-07T02:52:16;14.73;;;10.77;;
67737;SDS011;54534;43.612;1.572;2022-12-07T02:54:41;15.37;;;10.80;;
67737;SDS011;54534;43.612;1.572;2022-12-07T03:13:29;15.30;;;10.13;;
67737;SDS011;54534;43.612;1.572;2022-12-07T03:16:18;14.23;;;10.25;;
67737;SDS011;54534;43.612;1.572;2022-12-07T03:21:20;13.93;;;9.77;;
67737;SDS011;54534;43.612;1.572;2022-12-07T03:23:52;15.93;;;10.03;;
67737;SDS011;54534;43.612;1.572;2022-12-07T03:26:23;13.77;;;10.57;;
67737;SDS011;54534;43.612;1.572;2022-12-07T03:29:01;13.47;;;9.77;;
67737;SDS011;54534;43.612;1.572;2022-12-07T03:31:33;16.57;;;10.63;;
67737;SDS011;54534;43.612;1.572;2022-12-07T03:41:49;14.00;;;10.03;;
67737;SDS011;54534;43.612;1.572;2022-12-07T03:44:16;13.03;;;9.37;;
67737;SDS011;54534;43.612;1.572;2022-12-07T03:49:23;12.55;;;9.43;;
67737;SDS011;54534;43.612;1.572;2022-12-07T03:52:41;14.10;;;9.37;;
67737;SDS011;54534;43.612;1.572;2022-12-07T03:55:04;13.20;;;9.67;;
67737;SDS011;54534;43.612;1.572;2022-12-07T03:57:34;12.47;;;9.20;;
67737;SDS011;54534;43.612;1.572;2022-12-07T04:00:03;13.47;;;9.77;;
67737;SDS011;54534;43.612;1.572;2022-12-07T04:02:30;14.73;;;9.33;;
67737;SDS011;54534;43.612;1.572;2022-12-07T04:04:55;15.50;;;9.07;;
67737;SDS011;54534;43.612;1.572;2022-12-07T04:07:21;14.50;;;8.63;;
67737;SDS011;54534;43.612;1.572;2022-12-07T04:09:46;12.67;;;9.23;;
67737;SDS011;54534;43.612;1.572;2022-12-07T04:12:12;11.83;;;8.90;;
67737;SDS011;54534;43.612;1.572;2022-12-07T04:14:37;12.17;;;9.10;;
67737;SDS011;54534;43.612;1.572;2022-12-07T04:17:03;12.27;;;9.20;;
67737;SDS011;54534;43.612;1.572;2022-12-07T04:19:29;13.07;;;9.50;;
67737;SDS011;54534;43.612;1.572;2022-12-07T04:21:56;12.63;;;9.23;;
67737;SDS011;54534;43.612;1.572;2022-12-07T04:24:23;12.90;;;8.97;;
67737;SDS011;54534;43.612;1.572;2022-12-07T04:26:49;10.07;;;7.67;;
67737;SDS011;54534;43.612;1.572;2022-12-07T04:29:15;13.03;;;8.63;;
67737;SDS011;54534;43.612;1.572;2022-12-07T04:31:41;11.57;;;8.40;;
67737;SDS011;54534;43.612;1.572;2022-12-07T04:34:07;11.30;;;8.30;;
67737;SDS011;54534;43.612;1.572;2022-12-07T04:36:33;10.77;;;7.77;;
67737;SDS011;54534;43.612;1.572;2022-12-07T04:38:59;11.47;;;9.27;;
67737;SDS011;54534;43.612;1.572;2022-12-07T04:41:25;11.33;;;8.67;;
67737;SDS011;54534;43.612;1.572;2022-12-07T04:44:00;9.63;;;7.80;;
67737;SDS011;54534;43.612;1.572;2022-12-07T04:46:27;11.63;;;8.10;;
67737;SDS011;54534;43.612;1.572;2022-12-07T04:48:55;11.53;;;8.47;;
67737;SDS011;54534;43.612;1.572;2022-12-07T04:51:22;11.07;;;8.00;;
67737;SDS011;54534;43.612;1.572;2022-12-07T04:53:52;11.60;;;8.57;;
67737;SDS011;54534;43.612;1.572;2022-12-07T04:56:17;11.53;;;8.37;;
67737;SDS011;54534;43.612;1.572;2022-12-07T04:58:44;12.37;;;8.83;;
67737;SDS011;54534;43.612;1.572;2022-12-07T05:01:11;11.13;;;8.33;;
67737;SDS011;54534;43.612;1.572;2022-12-07T05:03:37;13.20;;;8.70;;
67737;SDS011;54534;43.612;1.572;2022-12-07T05:06:03;11.87;;;8.57;;
67737;SDS011;54534;43.612;1.572;2022-12-07T05:08:29;13.03;;;8.33;;
67737;SDS011;54534;43.612;1.572;2022-12-07T05:10:55;12.50;;;8.83;;
67737;SDS011;54534;43.612;1.572;2022-12-07T05:13:20;13.70;;;8.90;;
67737;SDS011;54534;43.612;1.572;2022-12-07T05:15:46;11.23;;;8.23;;
67737;SDS011;54534;43.612;1.572;2022-12-07T05:18:12;10.67;;;7.70;;
67737;SDS011;54534;43.612;1.572;2022-12-07T05:20:38;11.33;;;7.93;;
67737;SDS011;54534;43.612;1.572;2022-12-07T05:23:04;12.13;;;8.20;;
67737;SDS011;54534;43.612;1.572;2022-12-07T05:25:30;12.43;;;8.47;;
67737;SDS011;54534;43.612;1.572;2022-12-07T05:27:55;11.23;;;8.77;;
67737;SDS011;54534;43.612;1.572;2022-12-07T05:30:21;10.53;;;7.90;;
67737;SDS011;54534;43.612;1.572;2022-12-07T05:32:48;10.83;;;7.93;;
67737;SDS011;54534;43.612;1.572;2022-12-07T05:35:13;12.47;;;8.37;;
67737;SDS011;54534;43.612;1.572;2022-12-07T05:37:39;10.07;;;7.47;;
67737;SDS011;54534;43.612;1.572;2022-12-07T05:40:04;12.20;;;8.73;;
67737;SDS011;54534;43.612;1.572;2022-12-07T05:42:30;11.40;;;8.63;;
67737;SDS011;54534;43.612;1.572;2022-12-07T05:44:56;11.50;;;8.83;;
67737;SDS011;54534;43.612;1.572;2022-12-07T05:47:21;9.50;;;7.50;;
67737;SDS011;54534;43.612;1.572;2022-12-07T05:49:46;9.53;;;7.70;;
67737;SDS011;54534;43.612;1.572;2022-12-07T05:52:12;10.93;;;8.17;;
67737;SDS011;54534;43.612;1.572;2022-12-07T05:54:37;14.07;;;8.67;;
67737;SDS011;54534;43.612;1.572;2022-12-07T05:57:03;10.97;;;8.13;;
67737;SDS011;54534;43.612;1.572;2022-12-07T05:59:28;11.57;;;7.80;;
67737;SDS011;54534;43.612;1.572;2022-12-07T06:02:13;14.03;;;8.97;;
67737;SDS011;54534;43.612;1.572;2022-12-07T06:04:40;11.93;;;7.50;;
67737;SDS011;54534;43.612;1.572;2022-12-07T06:07:08;12.20;;;8.80;;
67737;SDS011;54534;43.612;1.572;2022-12-07T06:09:34;15.33;;;8.50;;
67737;SDS011;54534;43.612;1.572;2022-12-07T06:12:00;10.73;;;7.67;;
67737;SDS011;54534;43.612;1.572;2022-12-07T06:14:45;11.17;;;7.73;;
67737;SDS011;54534;43.612;1.572;2022-12-07T06:17:10;9.60;;;7.83;;
67737;SDS011;54534;43.612;1.572;2022-12-07T06:19:37;11.03;;;8.20;;
67737;SDS011;54534;43.612;1.572;2022-12-07T06:22:02;10.43;;;8.10;;
67737;SDS011;54534;43.612;1.572;2022-12-07T06:24:29;10.37;;;7.93;;
67737;SDS011;54534;43.612;1.572;2022-12-07T06:26:55;10.87;;;8.27;;
67737;SDS011;54534;43.612;1.572;2022-12-07T06:29:21;10.97;;;7.80;;
67737;SDS011;54534;43.612;1.572;2022-12-07T06:31:47;11.83;;;8.20;;
67737;SDS011;54534;43.612;1.572;2022-12-07T06:34:13;11.87;;;8.30;;
67737;SDS011;54534;43.612;1.572;2022-12-07T06:36:41;10.97;;;7.37;;
67737;SDS011;54534;43.612;1.572;2022-12-07T06:39:07;10.97;;;7.43;;
67737;SDS011;54534;43.612;1.572;2022-12-07T06:41:34;13.07;;;8.10;;
67737;SDS011;54534;43.612;1.572;2022-12-07T06:44:01;10.53;;;7.80;;
67737;SDS011;54534;43.612;1.572;2022-12-07T06:46:26;12.93;;;9.10;;
67737;SDS011;54534;43.612;1.572;2022-12-07T06:48:51;12.50;;;8.47;;
67737;SDS011;54534;43.612;1.572;2022-12-07T06:51:17;11.57;;;8.40;;
67737;SDS011;54534;43.612;1.572;2022-12-07T06:53:42;12.13;;;8.40;;
67737;SDS011;54534;43.612;1.572;2022-12-07T06:56:08;11.10;;;7.50;;
67737;SDS011;54534;43.612;1.572;2022-12-07T06:58:33;10.43;;;8.20;;
67737;SDS011;54534;43.612;1.572;2022-12-07T07:00:59;10.73;;;7.60;;
67737;SDS011;54534;43.612;1.572;2022-12-07T07:03:24;14.77;;;9.27;;
67737;SDS011;54534;43.612;1.572;2022-12-07T07:05:50;12.67;;;8.70;;
67737;SDS011;54534;43.612;1.572;2022-12-07T07:08:15;11.87;;;8.77;;
67737;SDS011;54534;43.612;1.572;2022-12-07T07:10:41;13.30;;;9.27;;
67737;SDS011;54534;43.612;1.572;2022-12-07T07:13:06;12.07;;;8.60;;
67737;SDS011;54534;43.612;1.572;2022-12-07T07:15:32;11.70;;;9.10;;
67737;SDS011;54534;43.612;1.572;2022-12-07T07:17:58;12.90;;;8.50;;
67737;SDS011;54534;43.612;1.572;2022-12-07T07:20:24;14.30;;;9.33;;
67737;SDS011;54534;43.612;1.572;2022-12-07T07:22:50;12.27;;;8.43;;
67737;SDS011;54534;43.612;1.572;2022-12-07T07:25:15;12.60;;;9.07;;
67737;SDS011;54534;43.612;1.572;2022-12-07T07:27:41;13.33;;;9.23;;
67737;SDS011;54534;43.612;1.572;2022-12-07T07:30:07;48.77;;;10.17;;
67737;SDS011;54534;43.612;1.572;2022-12-07T07:32:33;54.10;;;10.63;;
67737;SDS011;54534;43.612;1.572;2022-12-07T07:34:59;27.03;;;9.70;;
67737;SDS011;54534;43.612;1.572;2022-12-07T07:37:25;32.80;;;10.43;;
67737;SDS011;54534;43.612;1.572;2022-12-07T07:39:50;28.50;;;11.07;;
67737;SDS011;54534;43.612;1.572;2022-12-07T07:42:16;34.27;;;11.57;;
67737;SDS011;54534;43.612;1.572;2022-12-07T07:44:41;24.40;;;11.00;;
67737;SDS011;54534;43.612;1.572;2022-12-07T07:47:07;18.47;;;10.13;;
67737;SDS011;54534;43.612;1.572;2022-12-07T07:49:32;25.77;;;10.77;;
67737;SDS011;54534;43.612;1.572;2022-12-07T07:51:57;22.00;;;11.80;;
67737;SDS011;54534;43.612;1.572;2022-12-07T07:54:23;23.43;;;11.80;;
67737;SDS011;54534;43.612;1.572;2022-12-07T07:56:48;19.80;;;10.93;;
67737;SDS011;54534;43.612;1.572;2022-12-07T07:59:14;26.93;;;11.40;;
67737;SDS011;54534;43.612;1.572;2022-12-07T08:01:40;20.27;;;10.43;;
67737;SDS011;54534;43.612;1.572;2022-12-07T08:04:05;16.03;;;10.77;;
67737;SDS011;54534;43.612;1.572;2022-12-07T08:06:31;18.57;;;11.43;;
67737;SDS011;54534;43.612;1.572;2022-12-07T08:08:56;21.33;;;11.73;;
67737;SDS011;54534;43.612;1.572;2022-12-07T08:11:23;25.47;;;12.70;;
67737;SDS011;54534;43.612;1.572;2022-12-07T08:13:49;21.07;;;11.90;;
67737;SDS011;54534;43.612;1.572;2022-12-07T08:16:14;21.97;;;11.43;;
67737;SDS011;54534;43.612;1.572;2022-12-07T08:18:41;18.10;;;10.50;;
67737;SDS011;54534;43.612;1.572;2022-12-07T08:21:07;23.80;;;10.63;;
67737;SDS011;54534;43.612;1.572;2022-12-07T08:23:36;31.27;;;11.23;;
67737;SDS011;54534;43.612;1.572;2022-12-07T08:26:06;21.50;;;10.87;;
67737;SDS011;54534;43.612;1.572;2022-12-07T08:28:34;33.23;;;11.93;;
67737;SDS011;54534;43.612;1.572;2022-12-07T08:31:00;29.07;;;11.57;;
67737;SDS011;54534;43.612;1.572;2022-12-07T08:33:26;29.03;;;11.00;;
67737;SDS011;54534;43.612;1.572;2022-12-07T08:35:51;20.80;;;10.03;;
67737;SDS011;54534;43.612;1.572;2022-12-07T08:38:17;31.90;;;11.07;;
67737;SDS011;54534;43.612;1.572;2022-12-07T08:40:42;31.67;;;11.67;;
67737;SDS011;54534;43.612;1.572;2022-12-07T08:43:08;22.50;;;10.83;;
67737;SDS011;54534;43.612;1.572;2022-12-07T08:45:33;32.90;;;10.77;;
67737;SDS011;54534;43.612;1.572;2022-12-07T08:48:10;24.43;;;10.83;;
67737;SDS011;54534;43.612;1.572;2022-12-07T08:50:38;29.87;;;10.83;;
67737;SDS011;54534;43.612;1.572;2022-12-07T08:53:04;35.90;;;11.80;;
67737;SDS011;54534;43.612;1.572;2022-12-07T08:55:31;29.10;;;10.83;;
67737;SDS011;54534;43.612;1.572;2022-12-07T08:57:58;20.70;;;11.60;;
67737;SDS011;54534;43.612;1.572;2022-12-07T09:00:24;25.13;;;11.07;;
67737;SDS011;54534;43.612;1.572;2022-12-07T09:02:51;24.90;;;11.60;;
67737;SDS011;54534;43.612;1.572;2022-12-07T09:05:16;35.87;;;11.33;;
67737;SDS011;54534;43.612;1.572;2022-12-07T09:07:42;24.43;;;11.83;;
67737;SDS011;54534;43.612;1.572;2022-12-07T09:10:10;40.10;;;11.10;;
67737;SDS011;54534;43.612;1.572;2022-12-07T09:12:36;25.23;;;11.80;;
67737;SDS011;54534;43.612;1.572;2022-12-07T09:15:02;28.53;;;11.80;;
67737;SDS011;54534;43.612;1.572;2022-12-07T09:17:27;26.50;;;10.60;;
67737;SDS011;54534;43.612;1.572;2022-12-07T09:19:57;24.90;;;11.20;;
67737;SDS011;54534;43.612;1.572;2022-12-07T09:22:22;14.60;;;9.80;;
67737;SDS011;54534;43.612;1.572;2022-12-07T09:24:48;28.97;;;11.07;;
67737;SDS011;54534;43.612;1.572;2022-12-07T09:27:13;28.07;;;11.07;;
67737;SDS011;54534;43.612;1.572;2022-12-07T09:29:39;24.63;;;10.13;;
67737;SDS011;54534;43.612;1.572;2022-12-07T09:32:04;27.53;;;11.23;;
67737;SDS011;54534;43.612;1.572;2022-12-07T09:34:30;18.90;;;9.73;;
67737;SDS011;54534;43.612;1.572;2022-12-07T09:36:57;29.00;;;10.73;;
67737;SDS011;54534;43.612;1.572;2022-12-07T09:39:24;34.47;;;11.47;;
67737;SDS011;54534;43.612;1.572;2022-12-07T09:41:49;26.20;;;10.53;;
67737;SDS011;54534;43.612;1.572;2022-12-07T09:44:18;23.00;;;11.17;;
67737;SDS011;54534;43.612;1.572;2022-12-07T09:46:48;28.50;;;10.40;;
67737;SDS011;54534;43.612;1.572;2022-12-07T09:49:18;26.97;;;9.87;;
67737;SDS011;54534;43.612;1.572;2022-12-07T09:51:45;22.07;;;10.10;;
67737;SDS011;54534;43.612;1.572;2022-12-07T09:54:12;27.33;;;9.73;;
67737;SDS011;54534;43.612;1.572;2022-12-07T09:56:39;23.07;;;10.20;;
67737;SDS011;54534;43.612;1.572;2022-12-07T09:59:05;19.80;;;9.97;;
67737;SDS011;54534;43.612;1.572;2022-12-07T10:01:31;23.00;;;9.60;;
67737;SDS011;54534;43.612;1.572;2022-12-07T10:04:20;16.10;;;9.43;;
67737;SDS011;54534;43.612;1.572;2022-12-07T10:06:47;21.17;;;9.80;;
67737;SDS011;54534;43.612;1.572;2022-12-07T10:09:14;16.53;;;8.37;;
67737;SDS011;54534;43.612;1.572;2022-12-07T10:11:58;26.17;;;9.83;;
67737;SDS011;54534;43.612;1.572;2022-12-07T10:14:31;18.65;;;8.73;;
67737;SDS011;54534;43.612;1.572;2022-12-07T10:16:59;21.63;;;9.87;;
67737;SDS011;54534;43.612;1.572;2022-12-07T10:22:01;26.33;;;9.27;;
67737;SDS011;54534;43.612;1.572;2022-12-07T10:24:27;21.50;;;8.30;;
67737;SDS011;54534;43.612;1.572;2022-12-07T10:26:52;16.70;;;9.20;;
67737;SDS011;54534;43.612;1.572;2022-12-07T10:31:59;19.47;;;9.10;;
67737;SDS011;54534;43.612;1.572;2022-12-07T10:34:33;18.80;;;8.90;;
67737;SDS011;54534;43.612;1.572;2022-12-07T10:37:12;19.87;;;9.53;;
67737;SDS011;54534;43.612;1.572;2022-12-07T10:39:40;31.52;;;8.55;;
67737;SDS011;54534;43.612;1.572;2022-12-07T10:42:19;19.08;;;8.23;;
67737;SDS011;54534;43.612;1.572;2022-12-07T10:44:47;22.80;;;8.97;;
67737;SDS011;54534;43.612;1.572;2022-12-07T10:47:33;15.67;;;8.73;;
67737;SDS011;54534;43.612;1.572;2022-12-07T10:53:27;20.43;;;8.43;;
67737;SDS011;54534;43.612;1.572;2022-12-07T11:10:20;16.23;;;8.00;;
67737;SDS011;54534;43.612;1.572;2022-12-07T11:21:21;19.60;;;7.70;;
67737;SDS011;54534;43.612;1.572;2022-12-07T11:24:01;18.10;;;7.13;;
67737;SDS011;54534;43.612;1.572;2022-12-07T11:37:49;16.83;;;6.93;;
67737;SDS011;54534;43.612;1.572;2022-12-07T11:40:30;14.30;;;6.60;;
67737;SDS011;54534;43.612;1.572;2022-12-07T11:43:05;15.33;;;7.30;;
67737;SDS011;54534;43.612;1.572;2022-12-07T11:45:35;13.03;;;7.00;;
67737;SDS011;54534;43.612;1.572;2022-12-07T11:48:10;9.67;;;6.37;;
67737;SDS011;54534;43.612;1.572;2022-12-07T11:50:39;27.47;;;6.57;;
67737;SDS011;54534;43.612;1.572;2022-12-07T11:55:47;17.40;;;6.43;;
67737;SDS011;54534;43.612;1.572;2022-12-07T12:03:42;18.33;;;8.07;;
67737;SDS011;54534;43.612;1.572;2022-12-07T12:06:10;10.93;;;5.53;;
67737;SDS011;54534;43.612;1.572;2022-12-07T12:08:38;20.27;;;6.20;;
67737;SDS011;54534;43.612;1.572;2022-12-07T12:11:24;14.07;;;6.03;;
67737;SDS011;54534;43.612;1.572;2022-12-07T12:22:22;16.03;;;5.83;;
67737;SDS011;54534;43.612;1.572;2022-12-07T12:24:53;12.13;;;5.67;;
67737;SDS011;54534;43.612;1.572;2022-12-07T12:27:24;12.03;;;5.47;;
67737;SDS011;54534;43.612;1.572;2022-12-07T12:29:58;13.50;;;6.37;;
67737;SDS011;54534;43.612;1.572;2022-12-07T12:40:59;19.60;;;6.40;;
67737;SDS011;54534;43.612;1.572;2022-12-07T12:48:55;24.13;;;5.10;;
67737;SDS011;54534;43.612;1.572;2022-12-07T12:51:39;17.07;;;5.53;;
67737;SDS011;54534;43.612;1.572;2022-12-07T12:54:19;17.63;;;5.40;;
67737;SDS011;54534;43.612;1.572;2022-12-07T13:01:55;18.00;;;5.70;;
67737;SDS011;54534;43.612;1.572;2022-12-07T13:07:04;12.43;;;5.50;;
67737;SDS011;54534;43.612;1.572;2022-12-07T13:12:00;13.17;;;4.93;;
67737;SDS011;54534;43.612;1.572;2022-12-07T13:19:56;9.47;;;4.77;;
67737;SDS011;54534;43.612;1.572;2022-12-07T13:25:05;7.93;;;4.80;;
67737;SDS011;54534;43.612;1.572;2022-12-07T13:27:32;13.20;;;5.68;;
67737;SDS011;54534;43.612;1.572;2022-12-07T13:29:59;10.23;;;4.53;;
67737;SDS011;54534;43.612;1.572;2022-12-07T13:32:28;8.70;;;4.40;;
67737;SDS011;54534;43.612;1.572;2022-12-07T13:34:54;10.23;;;4.13;;
67737;SDS011;54534;43.612;1.572;2022-12-07T13:39:47;8.00;;;4.43;;
67737;SDS011;54534;43.612;1.572;2022-12-07T13:42:19;10.63;;;5.38;;
67737;SDS011;54534;43.612;1.572;2022-12-07T13:44:50;7.33;;;4.70;;
67737;SDS011;54534;43.612;1.572;2022-12-07T13:48:01;7.10;;;4.10;;
67737;SDS011;54534;43.612;1.572;2022-12-07T13:52:47;6.57;;;4.20;;
67737;SDS011;54534;43.612;1.572;2022-12-07T13:55:14;8.27;;;4.07;;
67737;SDS011;54534;43.612;1.572;2022-12-07T13:57:42;8.97;;;4.13;;
67737;SDS011;54534;43.612;1.572;2022-12-07T14:02:54;7.90;;;4.13;;
67737;SDS011;54534;43.612;1.572;2022-12-07T14:06:02;7.23;;;4.10;;
67737;SDS011;54534;43.612;1.572;2022-12-07T14:08:30;6.53;;;4.30;;
67737;SDS011;54534;43.612;1.572;2022-12-07T14:10:56;6.43;;;4.00;;
67737;SDS011;54534;43.612;1.572;2022-12-07T14:15:51;6.43;;;4.07;;
67737;SDS011;54534;43.612;1.572;2022-12-07T14:21:05;8.47;;;4.03;;
67737;SDS011;54534;43.612;1.572;2022-12-07T14:23:42;6.03;;;4.23;;
67737;SDS011;54534;43.612;1.572;2022-12-07T14:26:12;5.63;;;3.50;;
67737;SDS011;54534;43.612;1.572;2022-12-07T14:28:40;5.30;;;3.97;;
67737;SDS011;54534;43.612;1.572;2022-12-07T14:31:14;7.50;;;4.40;;
67737;SDS011;54534;43.612;1.572;2022-12-07T14:33:41;6.80;;;3.77;;
67737;SDS011;54534;43.612;1.572;2022-12-07T14:36:13;5.13;;;4.00;;
67737;SDS011;54534;43.612;1.572;2022-12-07T14:38:40;5.67;;;3.63;;
67737;SDS011;54534;43.612;1.572;2022-12-07T14:41:06;6.03;;;3.63;;
67737;SDS011;54534;43.612;1.572;2022-12-07T14:43:57;6.33;;;3.70;;
67737;SDS011;54534;43.612;1.572;2022-12-07T14:46:23;7.23;;;3.30;;
67737;SDS011;54534;43.612;1.572;2022-12-07T14:48:48;6.40;;;4.03;;
67737;SDS011;54534;43.612;1.572;2022-12-07T14:51:14;7.33;;;4.77;;
67737;SDS011;54534;43.612;1.572;2022-12-07T14:53:41;4.50;;;3.87;;
67737;SDS011;54534;43.612;1.572;2022-12-07T14:56:10;4.70;;;3.53;;
67737;SDS011;54534;43.612;1.572;2022-12-07T14:58:35;5.00;;;3.90;;
67737;SDS011;54534;43.612;1.572;2022-12-07T15:01:01;6.27;;;3.67;;
67737;SDS011;54534;43.612;1.572;2022-12-07T15:03:26;6.00;;;3.83;;
67737;SDS011;54534;43.612;1.572;2022-12-07T15:05:52;4.90;;;3.57;;
67737;SDS011;54534;43.612;1.572;2022-12-07T15:08:17;4.47;;;3.20;;
67737;SDS011;54534;43.612;1.572;2022-12-07T15:10:43;10.23;;;3.63;;
67737;SDS011;54534;43.612;1.572;2022-12-07T15:13:09;9.70;;;3.73;;
67737;SDS011;54534;43.612;1.572;2022-12-07T15:15:53;11.83;;;4.20;;
67737;SDS011;54534;43.612;1.572;2022-12-07T15:18:20;6.17;;;3.97;;
67737;SDS011;54534;43.612;1.572;2022-12-07T15:20:47;9.17;;;4.33;;
67737;SDS011;54534;43.612;1.572;2022-12-07T15:23:12;9.80;;;3.73;;
67737;SDS011;54534;43.612;1.572;2022-12-07T15:25:41;15.70;;;4.00;;
67737;SDS011;54534;43.612;1.572;2022-12-07T15:28:08;5.93;;;3.90;;
67737;SDS011;54534;43.612;1.572;2022-12-07T15:30:36;7.77;;;3.93;;
67737;SDS011;54534;43.612;1.572;2022-12-07T15:33:02;8.33;;;3.63;;
67737;SDS011;54534;43.612;1.572;2022-12-07T15:35:28;9.27;;;3.67;;
67737;SDS011;54534;43.612;1.572;2022-12-07T15:37:53;7.53;;;3.83;;
67737;SDS011;54534;43.612;1.572;2022-12-07T15:40:19;10.53;;;3.73;;
67737;SDS011;54534;43.612;1.572;2022-12-07T15:42:44;6.40;;;3.80;;
67737;SDS011;54534;43.612;1.572;2022-12-07T15:45:09;9.13;;;4.10;;
67737;SDS011;54534;43.612;1.572;2022-12-07T15:47:39;9.10;;;4.30;;
67737;SDS011;54534;43.612;1.572;2022-12-07T15:50:08;7.70;;;3.80;;
67737;SDS011;54534;43.612;1.572;2022-12-07T15:52:36;6.97;;;3.70;;
67737;SDS011;54534;43.612;1.572;2022-12-07T15:55:01;8.03;;;3.90;;
67737;SDS011;54534;43.612;1.572;2022-12-07T15:57:28;7.13;;;4.00;;
67737;SDS011;54534;43.612;1.572;2022-12-07T16:02:23;4.23;;;3.30;;
67737;SDS011;54534;43.612;1.572;2022-12-07T16:04:50;7.13;;;3.97;;
67737;SDS011;54534;43.612;1.572;2022-12-07T16:07:16;7.63;;;5.03;;
67737;SDS011;54534;43.612;1.572;2022-12-07T16:09:43;18.13;;;7.43;;
67737;SDS011;54534;43.612;1.572;2022-12-07T16:12:09;31.43;;;15.10;;
67737;SDS011;54534;43.612;1.572;2022-12-07T16:14:35;34.57;;;16.87;;
67737;SDS011;54534;43.612;1.572;2022-12-07T16:17:01;39.47;;;20.37;;
67737;SDS011;54534;43.612;1.572;2022-12-07T16:19:27;65.00;;;36.87;;
67737;SDS011;54534;43.612;1.572;2022-12-07T16:21:52;53.37;;;32.60;;
67737;SDS011;54534;43.612;1.572;2022-12-07T16:24:18;74.83;;;49.20;;
67737;SDS011;54534;43.612;1.572;2022-12-07T16:26:43;93.33;;;58.33;;
67737;SDS011;54534;43.612;1.572;2022-12-07T16:29:13;93.43;;;57.27;;
67737;SDS011;54534;43.612;1.572;2022-12-07T16:31:39;94.18;;;56.50;;
67737;SDS011;54534;43.612;1.572;2022-12-07T16:34:05;87.83;;;57.90;;
67737;SDS011;54534;43.612;1.572;2022-12-07T16:36:31;83.10;;;54.93;;
67737;SDS011;54534;43.612;1.572;2022-12-07T16:39:00;81.67;;;50.83;;
67737;SDS011;54534;43.612;1.572;2022-12-07T16:41:26;80.20;;;49.10;;
67737;SDS011;54534;43.612;1.572;2022-12-07T16:43:52;71.60;;;46.77;;
67737;SDS011;54534;43.612;1.572;2022-12-07T16:46:18;68.20;;;44.77;;
67737;SDS011;54534;43.612;1.572;2022-12-07T16:48:43;65.07;;;43.77;;
67737;SDS011;54534;43.612;1.572;2022-12-07T16:51:10;63.17;;;42.77;;
67737;SDS011;54534;43.612;1.572;2022-12-07T16:53:37;63.47;;;38.90;;
67737;SDS011;54534;43.612;1.572;2022-12-07T16:56:05;58.87;;;39.10;;
67737;SDS011;54534;43.612;1.572;2022-12-07T16:58:35;59.33;;;38.50;;
67737;SDS011;54534;43.612;1.572;2022-12-07T17:01:08;55.27;;;37.83;;
67737;SDS011;54534;43.612;1.572;2022-12-07T17:03:37;58.33;;;35.87;;
67737;SDS011;54534;43.612;1.572;2022-12-07T17:06:03;53.20;;;33.87;;
67737;SDS011;54534;43.612;1.572;2022-12-07T17:08:28;54.80;;;32.67;;
67737;SDS011;54534;43.612;1.572;2022-12-07T17:10:53;48.70;;;32.47;;